createdAt,value
2018-02-21T00:02:09.490Z,55.40
2018-02-21T00:04:40.818Z,55.40
2018-02-21T00:07:12.793Z,55.80
2018-02-21T00:09:44.199Z,55.80
2018-02-21T00:12:15.406Z,55.90
2018-02-21T00:14:46.616Z,55.90
2018-02-21T00:17:18.905Z,55.40
2018-02-21T00:19:50.500Z,55.40
2018-02-21T00:22:22.075Z,55.70
2018-02-21T00:24:54.069Z,55.80
2018-02-21T00:27:25.265Z,55.80
2018-02-21T00:29:56.444Z,55.60
2018-02-21T00:32:27.713Z,55.50
2018-02-21T00:34:58.889Z,55.70
2018-02-21T00:37:30.403Z,55.80
2018-02-21T00:40:01.573Z,55.90
2018-02-21T00:42:32.995Z,55.70
2018-02-21T00:45:04.264Z,55.70
2018-02-21T00:47:35.513Z,55.60
2018-02-21T00:50:06.759Z,55.40
2018-02-21T00:52:37.971Z,55.50
2018-02-21T00:55:09.134Z,56.00
2018-02-21T00:57:40.345Z,56.20
2018-02-21T01:00:11.581Z,56.20
2018-02-21T01:02:42.779Z,56.20
2018-02-21T01:05:14.023Z,56.20
2018-02-21T01:07:45.168Z,56.00
2018-02-21T01:10:16.368Z,56.20
2018-02-21T01:12:47.514Z,56.20
2018-02-21T01:15:18.722Z,56.30
2018-02-21T01:17:50.684Z,56.30
2018-02-21T01:20:22.200Z,56.30
2018-02-21T01:22:53.381Z,56.40
2018-02-21T01:25:24.656Z,56.50
2018-02-21T01:27:56.132Z,56.40
2018-02-21T01:30:27.302Z,56.50
2018-02-21T01:32:58.496Z,56.80
2018-02-21T01:35:29.716Z,57.00
2018-02-21T01:38:00.934Z,57.10
2018-02-21T01:40:32.465Z,57.00
2018-02-21T01:43:03.682Z,56.90
2018-02-21T01:45:34.912Z,57.10
2018-02-21T01:48:06.156Z,56.80
2018-02-21T01:50:50.501Z,56.40
2018-02-21T01:53:21.698Z,56.40
2018-02-21T01:55:52.847Z,56.60
2018-02-21T01:58:24.089Z,56.80
2018-02-21T02:00:55.274Z,56.90
2018-02-21T02:03:27.197Z,57.10
2018-02-21T02:05:58.406Z,57.10
2018-02-21T02:08:29.643Z,57.20
2018-02-21T02:11:01.394Z,57.20
2018-02-21T02:13:32.568Z,57.20
2018-02-21T02:16:03.759Z,57.10
2018-02-21T02:18:35.669Z,56.70
2018-02-21T02:21:06.884Z,56.70
2018-02-21T02:23:38.113Z,56.80
2018-02-21T02:26:10.084Z,57.00
2018-02-21T02:28:41.288Z,56.90
2018-02-21T02:31:12.462Z,56.80
2018-02-21T02:33:50.689Z,56.80
2018-02-21T02:36:21.890Z,57.10
2018-02-21T02:39:05.903Z,57.00
2018-02-21T02:41:37.106Z,57.20
2018-02-21T02:44:08.294Z,57.20
2018-02-21T02:46:39.467Z,57.20
2018-02-21T02:49:10.657Z,57.10
2018-02-21T02:51:42.113Z,57.10
2018-02-21T02:54:13.273Z,56.90
2018-02-21T02:56:44.491Z,57.10
2018-02-21T02:59:15.651Z,57.40
2018-02-21T03:01:46.863Z,57.40
2018-02-21T03:04:18.204Z,57.40
2018-02-21T03:06:49.473Z,57.50
2018-02-21T03:09:20.829Z,58.20
2018-02-21T03:11:52.027Z,57.90
2018-02-21T03:14:23.972Z,58.00
2018-02-21T03:16:55.169Z,58.00
2018-02-21T03:19:26.360Z,58.00
2018-02-21T03:21:57.568Z,57.90
2018-02-21T03:24:28.744Z,58.00
2018-02-21T03:27:00.786Z,57.90
2018-02-21T03:29:31.992Z,57.90
2018-02-21T03:32:03.620Z,57.90
2018-02-21T03:34:35.595Z,58.00
2018-02-21T03:37:06.800Z,58.00
2018-02-21T03:39:37.996Z,58.10
2018-02-21T03:42:09.222Z,58.00
2018-02-21T03:44:41.136Z,58.90
2018-02-21T03:47:12.391Z,58.20
2018-02-21T03:49:44.354Z,58.60
2018-02-21T03:52:16.888Z,58.20
2018-02-21T03:54:48.051Z,58.80
2018-02-21T03:57:19.263Z,58.30
2018-02-21T03:59:50.480Z,58.20
2018-02-21T04:02:22.413Z,58.50
2018-02-21T04:04:53.620Z,58.50
2018-02-21T04:07:24.844Z,58.50
2018-02-21T04:09:56.341Z,58.20
2018-02-21T04:12:27.516Z,58.30
2018-02-21T04:14:59.476Z,58.20
2018-02-21T04:17:31.411Z,58.30
2018-02-21T04:20:02.656Z,58.30
2018-02-21T04:22:33.815Z,58.20
2018-02-21T04:25:05.017Z,58.10
2018-02-21T04:27:36.189Z,58.30
2018-02-21T04:30:07.399Z,58.60
2018-02-21T04:32:38.584Z,58.50
2018-02-21T04:35:09.803Z,59.10
2018-02-21T04:37:41.093Z,59.20
2018-02-21T04:40:12.500Z,59.40
2018-02-21T04:42:43.694Z,59.40
2018-02-21T04:45:15.317Z,59.30
2018-02-21T04:47:46.646Z,59.20
2018-02-21T04:50:17.896Z,59.10
2018-02-21T04:52:49.111Z,59.20
2018-02-21T04:55:26.530Z,59.40
2018-02-21T04:58:12.647Z,59.20
2018-02-21T05:00:44.628Z,59.50
2018-02-21T05:03:15.853Z,59.50
2018-02-21T05:05:47.888Z,59.90
2018-02-21T05:08:19.115Z,59.90
2018-02-21T05:10:50.431Z,59.90
2018-02-21T05:13:21.657Z,59.90
2018-02-21T05:15:52.904Z,59.90
2018-02-21T05:18:24.804Z,59.80
2018-02-21T05:20:56.265Z,59.80
2018-02-21T05:23:27.496Z,60.20
2018-02-21T05:25:58.686Z,60.70
2018-02-21T05:28:30.711Z,61.50
2018-02-21T05:31:01.892Z,61.50
2018-02-21T05:33:33.900Z,62.00
2018-02-21T05:36:05.121Z,61.90
2018-02-21T05:38:36.391Z,62.00
2018-02-21T05:41:07.583Z,62.00
2018-02-21T05:43:39.647Z,62.10
2018-02-21T05:46:11.612Z,61.50
2018-02-21T05:48:43.675Z,61.80
2018-02-21T05:51:15.673Z,62.00
2018-02-21T05:53:47.193Z,62.00
2018-02-21T05:56:19.117Z,61.90
2018-02-21T05:58:50.353Z,61.90
2018-02-21T06:01:21.539Z,61.60
2018-02-21T06:03:52.744Z,62.00
2018-02-21T06:06:24.724Z,61.90
2018-02-21T06:08:56.781Z,61.70
2018-02-21T06:11:27.978Z,61.70
2018-02-21T06:13:59.207Z,61.60
2018-02-21T06:16:31.139Z,61.40
2018-02-21T06:19:02.382Z,61.30
2018-02-21T06:21:34.369Z,62.30
2018-02-21T06:24:06.437Z,61.30
2018-02-21T06:26:38.043Z,61.40
2018-02-21T06:29:09.399Z,60.90
2018-02-21T06:31:41.509Z,60.90
2018-02-21T06:34:12.728Z,60.90
2018-02-21T06:36:45.080Z,61.00
2018-02-21T06:39:16.305Z,61.00
2018-02-21T06:41:47.559Z,61.10
2018-02-21T06:44:18.808Z,61.10
2018-02-21T06:46:50.079Z,60.90
2018-02-21T06:49:22.418Z,60.80
2018-02-21T06:51:53.651Z,60.70
2018-02-21T06:54:24.871Z,60.90
2018-02-21T06:56:56.198Z,61.20
2018-02-21T06:59:28.171Z,61.30
2018-02-21T07:01:59.419Z,61.30
2018-02-21T07:04:31.466Z,61.60
2018-02-21T07:07:03.398Z,59.40
2018-02-21T07:09:34.756Z,59.30
2018-02-21T07:12:06.691Z,58.90
2018-02-21T07:14:37.906Z,58.90
2018-02-21T07:17:09.207Z,58.50
2018-02-21T07:19:40.419Z,58.10
2018-02-21T07:22:11.772Z,58.70
2018-02-21T07:24:42.991Z,59.20
2018-02-21T07:27:14.573Z,59.80
2018-02-21T07:29:45.843Z,60.20
2018-02-21T07:32:17.800Z,60.10
2018-02-21T07:34:49.712Z,60.10
2018-02-21T07:37:20.982Z,59.90
2018-02-21T07:39:52.151Z,60.10
2018-02-21T07:42:23.440Z,60.00
2018-02-21T07:44:54.633Z,60.00
2018-02-21T07:47:25.837Z,59.80
2018-02-21T07:49:57.334Z,59.70
2018-02-21T07:52:28.699Z,59.80
2018-02-21T07:54:59.891Z,59.90
2018-02-21T07:57:31.127Z,59.80
2018-02-21T08:00:02.350Z,59.60
2018-02-21T08:02:33.646Z,59.80
2018-02-21T08:05:04.893Z,60.10
2018-02-21T08:07:36.223Z,60.30
2018-02-21T08:10:07.486Z,60.60
2018-02-21T08:12:38.712Z,60.90
2018-02-21T08:15:10.027Z,61.10
2018-02-21T08:17:41.256Z,61.50
2018-02-21T08:20:12.652Z,61.40
2018-02-21T08:22:43.868Z,61.30
2018-02-21T08:25:15.094Z,61.60
2018-02-21T08:27:46.301Z,61.70
2018-02-21T08:30:17.603Z,61.50
2018-02-21T08:35:51.664Z,61.40
2018-02-21T08:38:24.378Z,61.10
2018-02-21T08:40:55.895Z,61.10
2018-02-21T08:43:27.143Z,61.20
2018-02-21T08:45:58.377Z,61.20
2018-02-21T08:48:29.937Z,61.30
2018-02-21T08:51:01.346Z,61.60
2018-02-21T08:53:36.807Z,62.20
2018-02-21T08:56:09.102Z,61.70
2018-02-21T08:58:40.352Z,61.40
2018-02-21T09:01:11.551Z,61.10
2018-02-21T09:03:42.777Z,61.50
2018-02-21T09:06:14.190Z,61.20
2018-02-21T09:08:46.257Z,60.60
2018-02-21T09:11:18.496Z,60.90
2018-02-21T09:13:49.871Z,60.90
2018-02-21T09:16:21.191Z,60.50
2018-02-21T09:18:52.460Z,60.20
2018-02-21T09:21:23.716Z,60.20
2018-02-21T09:23:55.059Z,59.80
2018-02-21T09:26:26.327Z,59.40
2018-02-21T09:28:57.591Z,59.10
2018-02-21T09:31:28.876Z,59.00
2018-02-21T09:34:00.163Z,58.70
2018-02-21T09:36:32.165Z,58.90
2018-02-21T09:39:03.524Z,58.90
2018-02-21T09:41:34.731Z,58.90
2018-02-21T09:44:06.022Z,59.00
2018-02-21T09:46:37.240Z,59.70
2018-02-21T09:49:08.805Z,59.10
2018-02-21T09:51:40.062Z,59.10
2018-02-21T09:54:11.315Z,58.90
2018-02-21T09:56:43.320Z,58.90
2018-02-21T09:59:14.600Z,59.10
2018-02-21T10:01:45.788Z,59.10
2018-02-21T10:04:17.396Z,59.00
2018-02-21T10:06:48.591Z,59.30
2018-02-21T10:09:20.305Z,58.30
2018-02-21T10:11:51.524Z,57.50
2018-02-21T10:14:22.773Z,56.80
2018-02-21T10:16:54.045Z,57.00
2018-02-21T10:19:26.059Z,57.00
2018-02-21T10:21:57.288Z,57.10
2018-02-21T10:24:28.531Z,56.00
2018-02-21T10:26:59.802Z,54.60
2018-02-21T10:29:31.038Z,54.20
2018-02-21T10:32:02.257Z,53.70
2018-02-21T10:34:34.243Z,53.70
2018-02-21T10:37:05.480Z,53.70
2018-02-21T10:39:36.993Z,54.10
2018-02-21T10:42:08.211Z,54.30
2018-02-21T10:44:39.421Z,54.00
2018-02-21T10:47:10.669Z,53.40
2018-02-21T10:49:41.944Z,53.10
2018-02-21T10:52:13.219Z,52.60
2018-02-21T10:54:44.823Z,51.90
2018-02-21T10:57:16.453Z,52.20
2018-02-21T10:59:48.051Z,52.30
2018-02-21T11:02:19.301Z,52.00
2018-02-21T11:04:50.510Z,52.10
2018-02-21T11:07:22.014Z,52.00
2018-02-21T11:09:54.004Z,52.30
2018-02-21T11:12:25.249Z,51.70
2018-02-21T11:14:56.495Z,51.80
2018-02-21T11:17:28.301Z,51.90
2018-02-21T11:20:01.856Z,51.20
2018-02-21T11:22:33.128Z,51.20
2018-02-21T11:25:04.814Z,50.80
2018-02-21T11:27:36.112Z,50.40
2018-02-21T11:30:07.336Z,50.20
2018-02-21T11:32:39.280Z,50.00
2018-02-21T11:35:11.253Z,50.00
2018-02-21T11:37:42.544Z,50.00
2018-02-21T11:40:14.107Z,50.60
2018-02-21T11:42:45.328Z,49.90
2018-02-21T11:45:17.021Z,49.50
2018-02-21T11:47:48.203Z,49.00
2018-02-21T11:50:20.308Z,49.00
2018-02-21T11:52:52.819Z,49.00
2018-02-21T11:55:28.610Z,48.90
2018-02-21T11:58:01.189Z,48.50
2018-02-21T12:00:37.382Z,48.30
2018-02-21T12:03:08.627Z,48.40
2018-02-21T12:05:39.889Z,48.70
2018-02-21T12:08:12.435Z,48.80
2018-02-21T12:10:44.967Z,49.10
2018-02-21T12:13:16.655Z,48.90
2018-02-21T12:15:48.639Z,48.30
2018-02-21T12:18:20.683Z,48.60
2018-02-21T12:20:52.784Z,47.40
2018-02-21T12:23:25.047Z,46.90
2018-02-21T12:25:56.489Z,46.90
2018-02-21T12:28:28.507Z,46.20
2018-02-21T12:31:00.034Z,46.30
2018-02-21T12:33:31.340Z,45.40
2018-02-21T12:36:03.769Z,43.00
2018-02-21T12:38:36.503Z,43.00
2018-02-21T12:41:13.974Z,43.00
2018-02-21T12:43:45.306Z,42.50
2018-02-21T12:46:16.540Z,42.40
2018-02-21T12:48:47.784Z,42.40
2018-02-21T12:51:19.808Z,41.40
2018-02-21T12:53:51.766Z,39.10
2018-02-21T12:56:23.887Z,39.40
2018-02-21T12:58:56.010Z,39.40
2018-02-21T13:01:27.965Z,40.10
2018-02-21T13:03:59.164Z,40.00
2018-02-21T13:06:30.408Z,39.10
2018-02-21T13:09:01.675Z,39.00
2018-02-21T13:11:32.876Z,38.70
2018-02-21T13:14:04.119Z,38.70
2018-02-21T13:16:35.364Z,38.40
2018-02-21T13:19:06.671Z,38.30
2018-02-21T13:21:37.908Z,38.70
2018-02-21T13:24:09.151Z,38.40
2018-02-21T13:26:40.375Z,37.90
2018-02-21T13:29:11.571Z,37.60
2018-02-21T13:31:43.067Z,37.80
2018-02-21T13:34:14.413Z,38.10
2018-02-21T13:36:45.596Z,38.30
2018-02-21T13:39:17.850Z,37.50
2018-02-21T13:41:49.873Z,37.40
2018-02-21T13:44:21.100Z,37.40
2018-02-21T13:46:52.373Z,38.30
2018-02-21T13:49:23.962Z,38.60
2018-02-21T13:51:55.383Z,39.40
2018-02-21T13:54:26.585Z,39.60
2018-02-21T13:56:57.857Z,39.00
2018-02-21T13:59:29.220Z,38.70
2018-02-21T14:02:00.424Z,38.60
2018-02-21T14:04:32.004Z,38.00
2018-02-21T14:07:03.280Z,38.30
2018-02-21T14:09:34.529Z,38.50
2018-02-21T14:12:05.725Z,39.00
2018-02-21T14:14:36.975Z,39.10
2018-02-21T14:17:08.219Z,39.20
2018-02-21T14:19:39.792Z,39.30
2018-02-21T14:22:10.999Z,39.30
2018-02-21T14:24:42.243Z,39.30
2018-02-21T14:27:13.469Z,39.10
2018-02-21T14:29:45.478Z,38.30
2018-02-21T14:32:16.755Z,38.30
2018-02-21T14:34:48.236Z,38.10
2018-02-21T14:37:20.177Z,37.90
2018-02-21T14:39:52.403Z,38.00
2018-02-21T14:42:23.883Z,38.00
2018-02-21T14:44:55.854Z,38.20
2018-02-21T14:47:27.120Z,38.10
2018-02-21T14:49:58.303Z,38.40
2018-02-21T14:52:29.617Z,38.40
2018-02-21T14:55:02.143Z,38.50
2018-02-21T14:57:33.606Z,38.60
2018-02-21T15:00:04.967Z,39.10
2018-02-21T15:02:36.992Z,40.70
2018-02-21T15:05:08.288Z,40.10
2018-02-21T15:07:39.523Z,40.50
2018-02-21T15:10:10.767Z,40.60
2018-02-21T15:12:41.995Z,41.10
2018-02-21T15:15:14.264Z,40.80
2018-02-21T15:17:46.232Z,40.90
2018-02-21T15:20:18.266Z,40.60
2018-02-21T15:22:51.096Z,40.60
2018-02-21T15:25:22.534Z,40.50
2018-02-21T15:27:53.902Z,40.60
2018-02-21T15:30:25.158Z,40.60
2018-02-21T15:32:56.339Z,40.70
2018-02-21T15:35:27.585Z,40.80
2018-02-21T15:37:58.784Z,40.50
2018-02-21T15:40:30.949Z,40.70
2018-02-21T15:43:02.724Z,41.10
2018-02-21T15:45:36.387Z,41.90
2018-02-21T15:48:07.724Z,41.90
2018-02-21T15:50:39.919Z,42.30
2018-02-21T15:53:11.144Z,42.30
2018-02-21T15:55:42.428Z,42.30
2018-02-21T15:58:13.679Z,42.30
2018-02-21T16:00:45.752Z,42.80
2018-02-21T16:03:16.964Z,42.70
2018-02-21T16:05:48.269Z,42.40
2018-02-21T16:08:20.305Z,42.60
2018-02-21T16:10:51.556Z,42.60
2018-02-21T16:13:23.980Z,42.90
2018-02-21T16:15:55.247Z,42.90
2018-02-21T16:18:26.494Z,42.70
2018-02-21T16:20:57.875Z,42.90
2018-02-21T16:23:29.254Z,43.20
2018-02-21T16:26:00.532Z,43.40
2018-02-21T16:28:31.755Z,43.10
2018-02-21T16:31:03.032Z,42.90
2018-02-21T16:33:34.320Z,43.00
2018-02-21T16:36:06.341Z,43.10
2018-02-21T16:38:37.612Z,42.90
2018-02-21T16:41:09.652Z,43.00
2018-02-21T16:43:40.849Z,43.60
2018-02-21T16:46:12.081Z,43.00
2018-02-21T16:48:43.320Z,43.20
2018-02-21T16:51:14.591Z,43.40
2018-02-21T16:54:04.764Z,43.20
2018-02-21T16:56:35.995Z,43.60
2018-02-21T16:59:07.953Z,43.60
2018-02-21T17:01:39.954Z,43.70
2018-02-21T17:04:11.139Z,43.70
2018-02-21T17:06:42.683Z,43.70
2018-02-21T17:09:13.937Z,43.80
2018-02-21T17:11:45.416Z,43.90
2018-02-21T17:14:16.630Z,43.90
2018-02-21T17:16:47.904Z,44.20
2018-02-21T17:19:19.179Z,44.40
2018-02-21T17:21:50.625Z,44.50
2018-02-21T17:24:21.975Z,44.60
2018-02-21T17:26:53.189Z,44.90
2018-02-21T17:29:25.261Z,44.90
2018-02-21T17:31:56.524Z,44.80
2018-02-21T17:34:27.796Z,44.80
2018-02-21T17:36:58.993Z,45.10
2018-02-21T17:39:30.607Z,44.70
2018-02-21T17:42:01.876Z,44.70
2018-02-21T17:44:34.222Z,45.10
2018-02-21T17:47:05.428Z,45.10
2018-02-21T17:49:36.854Z,45.10
2018-02-21T17:52:08.548Z,45.10
2018-02-21T17:54:39.847Z,45.30
2018-02-21T17:57:11.039Z,45.70
2018-02-21T17:59:42.296Z,45.10
2018-02-21T18:02:13.641Z,45.20
2018-02-21T18:04:45.089Z,45.20
2018-02-21T18:07:16.301Z,45.60
2018-02-21T18:09:47.542Z,45.00
2018-02-21T18:12:18.765Z,45.00
2018-02-21T18:14:50.721Z,45.60
2018-02-21T18:17:22.714Z,46.00
2018-02-21T18:19:53.970Z,45.90
2018-02-21T18:22:25.184Z,46.00
2018-02-21T18:24:56.399Z,46.20
2018-02-21T18:27:28.426Z,47.10
2018-02-21T18:30:00.483Z,46.50
2018-02-21T18:32:31.861Z,46.50
2018-02-21T18:35:03.186Z,46.90
2018-02-21T18:37:34.364Z,47.20
2018-02-21T18:40:06.352Z,47.10
2018-02-21T18:42:37.639Z,47.10
2018-02-21T18:45:08.812Z,47.00
2018-02-21T18:47:40.786Z,47.20
2018-02-21T18:50:12.731Z,47.30
2018-02-21T18:52:43.943Z,47.30
2018-02-21T18:55:15.118Z,47.30
2018-02-21T18:57:47.439Z,47.30
2018-02-21T19:00:18.624Z,47.30
2018-02-21T19:02:50.668Z,47.70
2018-02-21T19:05:21.887Z,47.60
2018-02-21T19:07:53.085Z,47.80
2018-02-21T19:10:24.995Z,47.90
2018-02-21T19:12:56.249Z,47.90
2018-02-21T19:15:27.492Z,48.00
2018-02-21T19:17:59.508Z,48.40
2018-02-21T19:20:31.516Z,48.20
2018-02-21T19:23:02.767Z,48.20
2018-02-21T19:25:33.999Z,48.50
2018-02-21T19:28:05.180Z,48.50
2018-02-21T19:30:36.712Z,49.00
2018-02-21T19:33:08.129Z,49.40
2018-02-21T19:35:39.380Z,49.60
2018-02-21T19:38:10.612Z,49.70
2018-02-21T19:40:41.872Z,49.60
2018-02-21T19:43:13.199Z,49.60
2018-02-21T19:45:44.441Z,50.10
2018-02-21T19:48:15.757Z,50.50
2018-02-21T19:50:47.036Z,50.90
2018-02-21T19:53:18.195Z,51.40
2018-02-21T19:55:49.528Z,52.00
2018-02-21T19:58:20.754Z,52.60
2018-02-21T20:00:52.700Z,53.60
2018-02-21T20:03:24.028Z,53.50
2018-02-21T20:05:55.300Z,54.00
2018-02-21T20:08:27.346Z,53.80
2018-02-21T20:10:59.312Z,54.20
2018-02-21T20:13:32.290Z,54.40
2018-02-21T20:16:03.511Z,54.40
2018-02-21T20:18:34.787Z,54.60
2018-02-21T20:21:05.975Z,54.60
2018-02-21T20:23:37.248Z,54.80
2018-02-21T20:26:08.490Z,54.60
2018-02-21T20:28:39.751Z,54.90
2018-02-21T20:31:10.992Z,55.30
2018-02-21T20:33:42.534Z,55.50
2018-02-21T20:36:13.743Z,55.60
2018-02-21T20:38:44.971Z,55.60
2018-02-21T20:41:16.195Z,55.80
2018-02-21T20:43:47.619Z,56.70
2018-02-21T20:46:18.842Z,57.10
2018-02-21T20:48:50.107Z,57.40
2018-02-21T20:51:21.895Z,57.50
2018-02-21T20:53:53.122Z,57.90
2018-02-21T20:56:24.365Z,58.40
2018-02-21T20:58:55.676Z,58.40
2018-02-21T21:01:26.939Z,58.70
2018-02-21T21:03:58.415Z,58.90
2018-02-21T21:06:29.739Z,59.20
2018-02-21T21:09:01.723Z,59.70
2018-02-21T21:11:33.773Z,59.90
2018-02-21T21:14:05.080Z,60.30
2018-02-21T21:16:36.375Z,60.10
2018-02-21T21:19:07.599Z,60.00
2018-02-21T21:21:38.902Z,60.60
2018-02-21T21:24:10.281Z,60.80
2018-02-21T21:26:41.501Z,60.90
2018-02-21T21:29:13.143Z,61.20
2018-02-21T21:31:44.411Z,61.50
2018-02-21T21:34:15.723Z,61.60
2018-02-21T21:36:46.961Z,61.60
2018-02-21T21:39:18.252Z,61.70
2018-02-21T21:41:49.676Z,62.40
2018-02-21T21:44:21.012Z,62.40
2018-02-21T21:46:52.419Z,62.40
2018-02-21T21:49:23.689Z,62.70
2018-02-21T21:51:55.796Z,62.50
2018-02-21T21:54:27.908Z,62.50
2018-02-21T21:56:59.973Z,62.40
2018-02-21T21:59:31.320Z,62.40
2018-02-21T22:02:03.578Z,62.80
2018-02-21T22:04:34.927Z,62.80
2018-02-21T22:07:06.276Z,62.60
2018-02-21T22:09:37.830Z,62.60
2018-02-21T22:12:09.928Z,62.50
2018-02-21T22:14:41.434Z,62.50
2018-02-21T22:17:12.678Z,63.20
2018-02-21T22:19:43.940Z,63.50
2018-02-21T22:22:15.182Z,63.80
2018-02-21T22:24:46.840Z,64.10
2018-02-21T22:27:18.947Z,63.60
2018-02-21T22:29:50.260Z,63.60
2018-02-21T22:32:21.568Z,63.70
2018-02-21T22:34:52.841Z,63.80
2018-02-21T22:37:24.180Z,63.60
2018-02-21T22:39:55.462Z,63.60
2018-02-21T22:42:26.800Z,63.90
2018-02-21T22:44:58.308Z,64.30
2018-02-21T22:47:29.608Z,64.50
2018-02-21T22:50:01.367Z,64.40
2018-02-21T22:52:32.898Z,64.80
2018-02-21T22:55:04.823Z,65.20
2018-02-21T22:57:36.076Z,65.20
2018-02-21T23:00:07.383Z,65.30
2018-02-21T23:02:38.685Z,65.50
2018-02-21T23:05:11.035Z,65.40
2018-02-21T23:07:42.315Z,65.40
2018-02-21T23:10:14.261Z,65.50
2018-02-21T23:12:46.253Z,65.70
2018-02-21T23:15:17.556Z,65.70
2018-02-21T23:17:48.830Z,65.80
2018-02-21T23:20:20.839Z,65.60
2018-02-21T23:22:52.046Z,65.60
2018-02-21T23:25:24.379Z,65.80
2018-02-21T23:27:55.614Z,65.70
2018-02-21T23:30:26.842Z,66.10
2018-02-21T23:32:58.068Z,66.40
2018-02-21T23:35:29.716Z,66.50
2018-02-21T23:38:00.959Z,66.60
2018-02-21T23:40:32.267Z,66.70
2018-02-21T23:43:03.537Z,66.80
2018-02-21T23:45:34.902Z,66.30
2018-02-21T23:48:06.163Z,66.70
2018-02-21T23:50:37.477Z,67.10
2018-02-21T23:53:08.694Z,67.00
2018-02-21T23:55:39.959Z,67.10
2018-02-21T23:58:11.908Z,66.70
